sensor_id;sensor_type;location;lat;lon;timestamp;pressure;altitude;pressure_sealevel;temperature;humidity
32474;BME280;41885;53.190;7.984;2022-09-03T00:02:05;101519.16;;;17.35;46.88
32474;BME280;41885;53.190;7.984;2022-09-03T00:06:13;101503.25;;;17.25;46.92
32474;BME280;41885;53.190;7.984;2022-09-03T00:10:22;101513.25;;;17.25;47.00
32474;BME280;41885;53.190;7.984;2022-09-03T00:14:27;101507.09;;;17.16;47.12
32474;BME280;41885;53.190;7.984;2022-09-03T00:18:41;101505.34;;;17.08;47.45
32474;BME280;41885;53.190;7.984;2022-09-03T00:22:46;101510.69;;;17.02;47.39
32474;BME280;41885;53.190;7.984;2022-09-03T00:26:52;101512.25;;;16.96;47.35
32474;BME280;41885;53.190;7.984;2022-09-03T00:31:06;101518.63;;;16.88;49.22
32474;BME280;41885;53.190;7.984;2022-09-03T00:35:15;101511.25;;;16.82;48.02
32474;BME280;41885;53.190;7.984;2022-09-03T00:39:22;101506.41;;;16.78;47.83
32474;BME280;41885;53.190;7.984;2022-09-03T00:43:36;101510.84;;;16.70;48.38
32474;BME280;41885;53.190;7.984;2022-09-03T00:47:57;101509.56;;;16.66;49.21
32474;BME280;41885;53.190;7.984;2022-09-03T00:52:10;101517.56;;;16.60;48.53
32474;BME280;41885;53.190;7.984;2022-09-03T00:56:22;101509.53;;;16.51;48.57
32474;BME280;41885;53.190;7.984;2022-09-03T01:00:27;101508.06;;;16.49;48.21
32474;BME280;41885;53.190;7.984;2022-09-03T01:04:38;101510.13;;;16.47;49.29
32474;BME280;41885;53.190;7.984;2022-09-03T01:09:06;101508.16;;;16.41;50.22
32474;BME280;41885;53.190;7.984;2022-09-03T01:13:15;101507.59;;;16.31;48.71
32474;BME280;41885;53.190;7.984;2022-09-03T01:17:28;101502.94;;;16.24;49.73
32474;BME280;41885;53.190;7.984;2022-09-03T01:21:49;101494.53;;;16.19;50.76
32474;BME280;41885;53.190;7.984;2022-09-03T01:26:09;101510.25;;;16.16;50.07
32474;BME280;41885;53.190;7.984;2022-09-03T01:30:18;101508.28;;;16.10;49.52
32474;BME280;41885;53.190;7.984;2022-09-03T01:34:34;101505.84;;;16.00;50.14
32474;BME280;41885;53.190;7.984;2022-09-03T01:38:46;101506.41;;;15.95;50.98
32474;BME280;41885;53.190;7.984;2022-09-03T01:43:02;101505.25;;;15.90;51.72
32474;BME280;41885;53.190;7.984;2022-09-03T01:47:17;101510.06;;;15.79;51.17
32474;BME280;41885;53.190;7.984;2022-09-03T01:51:26;101505.41;;;15.73;50.19
32474;BME280;41885;53.190;7.984;2022-09-03T01:55:31;101510.66;;;15.67;50.31
32474;BME280;41885;53.190;7.984;2022-09-03T01:59:40;101504.47;;;15.58;50.92
32474;BME280;41885;53.190;7.984;2022-09-03T02:03:46;101508.16;;;15.57;50.86
32474;BME280;41885;53.190;7.984;2022-09-03T02:07:55;101510.22;;;15.55;51.04
32474;BME280;41885;53.190;7.984;2022-09-03T02:12:02;101507.19;;;15.50;51.28
32474;BME280;41885;53.190;7.984;2022-09-03T02:16:10;101496.84;;;15.39;50.84
32474;BME280;41885;53.190;7.984;2022-09-03T02:20:18;101511.31;;;15.38;51.38
32474;BME280;41885;53.190;7.984;2022-09-03T02:24:21;101516.06;;;15.35;51.13
32474;BME280;41885;53.190;7.984;2022-09-03T02:28:24;101511.38;;;15.29;51.20
32474;BME280;41885;53.190;7.984;2022-09-03T02:32:27;101518.84;;;15.19;51.43
32474;BME280;41885;53.190;7.984;2022-09-03T02:36:33;101515.47;;;15.17;51.99
32474;BME280;41885;53.190;7.984;2022-09-03T02:40:35;101519.19;;;15.16;51.71
32474;BME280;41885;53.190;7.984;2022-09-03T02:44:40;101519.53;;;15.13;52.20
32474;BME280;41885;53.190;7.984;2022-09-03T02:48:45;101522.09;;;15.06;52.10
32474;BME280;41885;53.190;7.984;2022-09-03T02:52:48;101520.09;;;15.00;51.93
32474;BME280;41885;53.190;7.984;2022-09-03T02:56:50;101513.72;;;14.93;52.32
32474;BME280;41885;53.190;7.984;2022-09-03T03:00:53;101520.13;;;14.92;52.38
32474;BME280;41885;53.190;7.984;2022-09-03T03:04:55;101515.09;;;14.89;52.52
32474;BME280;41885;53.190;7.984;2022-09-03T03:08:59;101516.63;;;14.83;52.65
32474;BME280;41885;53.190;7.984;2022-09-03T03:13:03;101507.41;;;14.78;53.06
32474;BME280;41885;53.190;7.984;2022-09-03T03:17:05;101524.06;;;14.73;52.84
32474;BME280;41885;53.190;7.984;2022-09-03T03:21:09;101524.75;;;14.67;53.16
32474;BME280;41885;53.190;7.984;2022-09-03T03:25:13;101524.59;;;14.60;53.21
32474;BME280;41885;53.190;7.984;2022-09-03T03:29:16;101522.09;;;14.59;53.71
32474;BME280;41885;53.190;7.984;2022-09-03T03:33:18;101520.06;;;14.61;53.70
32474;BME280;41885;53.190;7.984;2022-09-03T03:37:20;101520.25;;;14.59;53.76
32474;BME280;41885;53.190;7.984;2022-09-03T03:41:24;101519.41;;;14.59;53.80
32474;BME280;41885;53.190;7.984;2022-09-03T03:45:27;101515.88;;;14.58;53.29
32474;BME280;41885;53.190;7.984;2022-09-03T03:49:29;101524.63;;;14.52;53.88
32474;BME280;41885;53.190;7.984;2022-09-03T03:53:31;101511.19;;;14.52;54.10
32474;BME280;41885;53.190;7.984;2022-09-03T03:57:34;101505.28;;;14.49;53.67
32474;BME280;41885;53.190;7.984;2022-09-03T04:01:37;101516.88;;;14.41;59.67
32474;BME280;41885;53.190;7.984;2022-09-03T04:05:39;101522.94;;;14.43;53.74
32474;BME280;41885;53.190;7.984;2022-09-03T04:09:41;101513.72;;;14.37;53.88
32474;BME280;41885;53.190;7.984;2022-09-03T04:13:45;101521.78;;;14.37;53.84
32474;BME280;41885;53.190;7.984;2022-09-03T04:17:47;101518.75;;;14.32;53.93
32474;BME280;41885;53.190;7.984;2022-09-03T04:21:49;101521.97;;;14.28;53.70
32474;BME280;41885;53.190;7.984;2022-09-03T04:25:51;101518.94;;;14.23;54.02
32474;BME280;41885;53.190;7.984;2022-09-03T04:29:55;101527.00;;;14.23;54.30
32474;BME280;41885;53.190;7.984;2022-09-03T04:33:57;101512.91;;;14.21;54.15
32474;BME280;41885;53.190;7.984;2022-09-03T04:37:59;101514.75;;;14.20;54.38
32474;BME280;41885;53.190;7.984;2022-09-03T04:42:04;101512.06;;;14.12;54.71
32474;BME280;41885;53.190;7.984;2022-09-03T04:46:09;101511.06;;;14.05;54.54
32474;BME280;41885;53.190;7.984;2022-09-03T04:50:12;101502.66;;;14.00;55.01
32474;BME280;41885;53.190;7.984;2022-09-03T04:54:14;101510.03;;;14.06;54.86
32474;BME280;41885;53.190;7.984;2022-09-03T04:58:16;101515.41;;;14.06;54.91
32474;BME280;41885;53.190;7.984;2022-09-03T05:02:19;101510.03;;;14.06;55.22
32474;BME280;41885;53.190;7.984;2022-09-03T05:06:22;101515.78;;;14.11;55.52
32474;BME280;41885;53.190;7.984;2022-09-03T05:10:25;101499.78;;;14.09;55.25
32474;BME280;41885;53.190;7.984;2022-09-03T05:14:27;101511.72;;;14.23;55.35
32474;BME280;41885;53.190;7.984;2022-09-03T05:18:30;101519.94;;;14.30;55.00
32474;BME280;41885;53.190;7.984;2022-09-03T05:22:33;101517.75;;;14.33;55.49
32474;BME280;41885;53.190;7.984;2022-09-03T05:26:36;101516.06;;;14.40;55.04
32474;BME280;41885;53.190;7.984;2022-09-03T05:30:39;101506.28;;;14.48;55.39
32474;BME280;41885;53.190;7.984;2022-09-03T05:34:42;101520.41;;;14.58;55.35
32474;BME280;41885;53.190;7.984;2022-09-03T05:38:44;101518.19;;;14.70;54.92
32474;BME280;41885;53.190;7.984;2022-09-03T05:42:47;101513.44;;;14.80;54.91
32474;BME280;41885;53.190;7.984;2022-09-03T05:46:49;101508.34;;;14.93;54.94
32474;BME280;41885;53.190;7.984;2022-09-03T05:50:59;101507.28;;;15.02;55.12
32474;BME280;41885;53.190;7.984;2022-09-03T05:55:02;101502.91;;;15.09;54.44
32474;BME280;41885;53.190;7.984;2022-09-03T05:59:06;101505.91;;;15.15;54.25
32474;BME280;41885;53.190;7.984;2022-09-03T06:03:09;101501.41;;;15.07;59.48
32474;BME280;41885;53.190;7.984;2022-09-03T06:07:12;101505.91;;;15.15;54.41
32474;BME280;41885;53.190;7.984;2022-09-03T06:11:14;101506.72;;;15.15;54.06
32474;BME280;41885;53.190;7.984;2022-09-03T06:15:16;101506.72;;;15.15;53.96
32474;BME280;41885;53.190;7.984;2022-09-03T06:19:18;101509.25;;;15.17;54.40
32474;BME280;41885;53.190;7.984;2022-09-03T06:23:22;101501.47;;;15.22;54.49
32474;BME280;41885;53.190;7.984;2022-09-03T06:27:24;101502.97;;;15.24;54.03
32474;BME280;41885;53.190;7.984;2022-09-03T06:31:26;101506.34;;;15.26;54.35
32474;BME280;41885;53.190;7.984;2022-09-03T06:35:28;101511.84;;;15.33;54.44
32474;BME280;41885;53.190;7.984;2022-09-03T06:39:32;101501.22;;;15.40;54.35
32474;BME280;41885;53.190;7.984;2022-09-03T06:43:35;101505.41;;;15.42;54.06
32474;BME280;41885;53.190;7.984;2022-09-03T06:47:37;101493.63;;;15.43;58.48
32474;BME280;41885;53.190;7.984;2022-09-03T06:51:39;101495.72;;;15.56;53.60
32474;BME280;41885;53.190;7.984;2022-09-03T06:55:52;101494.31;;;15.60;55.05
32474;BME280;41885;53.190;7.984;2022-09-03T06:59:54;101502.88;;;15.72;53.81
32474;BME280;41885;53.190;7.984;2022-09-03T07:03:57;101499.09;;;15.81;53.61
32474;BME280;41885;53.190;7.984;2022-09-03T07:08:00;101501.19;;;15.94;53.49
32474;BME280;41885;53.190;7.984;2022-09-03T07:12:04;101502.22;;;16.08;53.33
32474;BME280;41885;53.190;7.984;2022-09-03T07:16:08;101513.25;;;16.21;53.21
32474;BME280;41885;53.190;7.984;2022-09-03T07:20:10;101503.28;;;16.36;53.42
32474;BME280;41885;53.190;7.984;2022-09-03T07:24:12;101499.59;;;16.52;53.06
32474;BME280;41885;53.190;7.984;2022-09-03T07:28:16;101504.63;;;16.70;52.83
32474;BME280;41885;53.190;7.984;2022-09-03T07:32:18;101501.38;;;16.89;52.34
32474;BME280;41885;53.190;7.984;2022-09-03T07:36:21;101504.59;;;17.14;52.30
32474;BME280;41885;53.190;7.984;2022-09-03T07:40:23;101499.56;;;17.48;52.76
32474;BME280;41885;53.190;7.984;2022-09-03T07:44:27;101505.34;;;19.07;53.15
32474;BME280;41885;53.190;7.984;2022-09-03T07:48:30;101492.97;;;22.12;50.78
32474;BME280;41885;53.190;7.984;2022-09-03T07:52:32;101490.53;;;25.15;47.09
32474;BME280;41885;53.190;7.984;2022-09-03T07:56:35;101497.38;;;27.57;43.66
32474;BME280;41885;53.190;7.984;2022-09-03T08:00:39;101501.47;;;29.45;41.25
32474;BME280;41885;53.190;7.984;2022-09-03T08:04:40;101502.38;;;31.02;35.49
32474;BME280;41885;53.190;7.984;2022-09-03T08:08:43;101502.31;;;32.74;38.28
32474;BME280;41885;53.190;7.984;2022-09-03T08:12:45;101506.09;;;34.10;36.84
32474;BME280;41885;53.190;7.984;2022-09-03T08:16:49;101511.88;;;35.24;35.29
32474;BME280;41885;53.190;7.984;2022-09-03T08:20:51;101507.41;;;36.04;33.78
32474;BME280;41885;53.190;7.984;2022-09-03T08:24:53;101506.53;;;36.66;33.10
32474;BME280;41885;53.190;7.984;2022-09-03T08:28:55;101491.28;;;37.47;32.32
32474;BME280;41885;53.190;7.984;2022-09-03T08:33:00;101495.59;;;38.47;30.92
32474;BME280;41885;53.190;7.984;2022-09-03T08:37:04;101487.84;;;39.24;29.55
32474;BME280;41885;53.190;7.984;2022-09-03T08:41:11;101504.28;;;39.47;29.13
32474;BME280;41885;53.190;7.984;2022-09-03T08:45:18;101488.75;;;39.70;28.65
32474;BME280;41885;53.190;7.984;2022-09-03T08:49:26;101494.09;;;39.96;27.42
32474;BME280;41885;53.190;7.984;2022-09-03T08:53:38;101504.44;;;40.54;26.54
32474;BME280;41885;53.190;7.984;2022-09-03T08:57:46;101500.56;;;40.46;27.22
32474;BME280;41885;53.190;7.984;2022-09-03T09:01:54;101489.72;;;40.57;26.81
32474;BME280;41885;53.190;7.984;2022-09-03T09:06:07;101500.63;;;40.99;25.06
32474;BME280;41885;53.190;7.984;2022-09-03T09:10:17;101491.75;;;41.09;24.24
32474;BME280;41885;53.190;7.984;2022-09-03T09:14:25;101487.38;;;41.24;25.56
32474;BME280;41885;53.190;7.984;2022-09-03T09:18:40;101488.78;;;41.58;24.79
32474;BME280;41885;53.190;7.984;2022-09-03T09:22:50;101471.31;;;41.49;24.65
32474;BME280;41885;53.190;7.984;2022-09-03T09:26:58;101474.06;;;42.09;24.83
32474;BME280;41885;53.190;7.984;2022-09-03T09:31:02;101464.19;;;42.46;24.15
32474;BME280;41885;53.190;7.984;2022-09-03T09:35:07;101475.44;;;42.31;23.47
32474;BME280;41885;53.190;7.984;2022-09-03T09:39:11;101481.44;;;42.45;23.63
32474;BME280;41885;53.190;7.984;2022-09-03T09:43:17;101465.31;;;42.10;23.56
32474;BME280;41885;53.190;7.984;2022-09-03T09:47:24;101462.59;;;42.30;23.27
32474;BME280;41885;53.190;7.984;2022-09-03T09:51:29;101470.34;;;42.52;23.47
32474;BME280;41885;53.190;7.984;2022-09-03T09:55:33;101462.13;;;42.12;23.07
32474;BME280;41885;53.190;7.984;2022-09-03T09:59:37;101467.13;;;41.87;23.21
32474;BME280;41885;53.190;7.984;2022-09-03T10:03:47;101472.88;;;41.78;22.84
32474;BME280;41885;53.190;7.984;2022-09-03T10:07:55;101467.59;;;41.61;22.10
32474;BME280;41885;53.190;7.984;2022-09-03T10:12:07;101482.53;;;41.36;19.72
32474;BME280;41885;53.190;7.984;2022-09-03T10:16:20;101465.06;;;41.27;21.92
32474;BME280;41885;53.190;7.984;2022-09-03T10:20:27;101454.69;;;41.16;23.21
32474;BME280;41885;53.190;7.984;2022-09-03T10:24:39;101447.09;;;41.16;20.06
32474;BME280;41885;53.190;7.984;2022-09-03T10:28:49;101455.31;;;41.65;21.04
32474;BME280;41885;53.190;7.984;2022-09-03T10:33:01;101451.31;;;41.66;21.80
32474;BME280;41885;53.190;7.984;2022-09-03T10:37:17;101444.16;;;41.69;19.93
32474;BME280;41885;53.190;7.984;2022-09-03T10:41:29;101429.81;;;41.42;21.46
32474;BME280;41885;53.190;7.984;2022-09-03T10:45:39;101435.16;;;40.91;20.11
32474;BME280;41885;53.190;7.984;2022-09-03T10:49:49;101430.69;;;40.50;21.36
32474;BME280;41885;53.190;7.984;2022-09-03T10:54:06;101436.47;;;40.08;20.45
32474;BME280;41885;53.190;7.984;2022-09-03T10:58:28;101426.56;;;39.73;20.96
32474;BME280;41885;53.190;7.984;2022-09-03T11:03:21;101422.31;;;39.01;20.48
32474;BME280;41885;53.190;7.984;2022-09-03T11:07:34;101412.28;;;38.58;19.26
32474;BME280;41885;53.190;7.984;2022-09-03T11:11:43;101418.44;;;38.64;21.65
32474;BME280;41885;53.190;7.984;2022-09-03T11:15:50;101425.88;;;38.30;22.79
32474;BME280;41885;53.190;7.984;2022-09-03T11:19:56;101407.34;;;38.25;22.73
32474;BME280;41885;53.190;7.984;2022-09-03T11:24:05;101405.22;;;38.22;19.98
32474;BME280;41885;53.190;7.984;2022-09-03T11:28:19;101403.41;;;38.26;21.37
32474;BME280;41885;53.190;7.984;2022-09-03T11:32:29;101402.44;;;38.22;23.33
32474;BME280;41885;53.190;7.984;2022-09-03T11:36:37;101397.31;;;38.54;23.64
32474;BME280;41885;53.190;7.984;2022-09-03T11:40:42;101399.44;;;39.20;23.10
32474;BME280;41885;53.190;7.984;2022-09-03T11:45:19;101390.47;;;39.60;20.96
32474;BME280;41885;53.190;7.984;2022-09-03T11:49:27;101384.13;;;40.33;21.23
32474;BME280;41885;53.190;7.984;2022-09-03T11:53:35;101388.09;;;40.32;20.82
32474;BME280;41885;53.190;7.984;2022-09-03T11:57:40;101386.88;;;39.71;20.86
32474;BME280;41885;53.190;7.984;2022-09-03T12:01:47;101374.25;;;38.87;20.50
32474;BME280;41885;53.190;7.984;2022-09-03T12:06:07;101370.56;;;37.93;20.37
32474;BME280;41885;53.190;7.984;2022-09-03T12:10:26;101373.38;;;36.60;20.25
32474;BME280;41885;53.190;7.984;2022-09-03T12:14:38;101374.13;;;35.09;21.11
32474;BME280;41885;53.190;7.984;2022-09-03T12:18:43;101363.50;;;33.97;21.63
32474;BME280;41885;53.190;7.984;2022-09-03T12:22:48;101375.94;;;33.07;22.06
32474;BME280;41885;53.190;7.984;2022-09-03T12:26:52;101370.16;;;32.41;22.74
32474;BME280;41885;53.190;7.984;2022-09-03T12:31:05;101364.34;;;31.71;23.25
32474;BME280;41885;53.190;7.984;2022-09-03T12:35:13;101374.19;;;31.19;23.68
32474;BME280;41885;53.190;7.984;2022-09-03T12:39:17;101363.44;;;30.78;23.75
32474;BME280;41885;53.190;7.984;2022-09-03T12:43:26;101367.94;;;30.53;24.14
32474;BME280;41885;53.190;7.984;2022-09-03T12:47:28;101357.59;;;30.30;23.87
32474;BME280;41885;53.190;7.984;2022-09-03T12:51:32;101352.66;;;30.17;24.40
32474;BME280;41885;53.190;7.984;2022-09-03T12:55:40;101365.75;;;29.70;25.10
32474;BME280;41885;53.190;7.984;2022-09-03T12:59:46;101350.91;;;29.30;25.00
32474;BME280;41885;53.190;7.984;2022-09-03T13:03:52;101350.56;;;28.86;25.41
32474;BME280;41885;53.190;7.984;2022-09-03T13:07:59;101358.19;;;28.58;25.73
32474;BME280;41885;53.190;7.984;2022-09-03T13:12:04;101335.00;;;28.34;25.84
32474;BME280;41885;53.190;7.984;2022-09-03T13:16:23;101333.56;;;28.16;27.28
32474;BME280;41885;53.190;7.984;2022-09-03T13:20:34;101332.38;;;27.96;26.54
32474;BME280;41885;53.190;7.984;2022-09-03T13:24:52;101317.53;;;27.97;27.22
32474;BME280;41885;53.190;7.984;2022-09-03T13:29:15;101329.34;;;27.93;27.54
32474;BME280;41885;53.190;7.984;2022-09-03T13:33:27;101318.84;;;27.85;26.87
32474;BME280;41885;53.190;7.984;2022-09-03T13:37:38;101318.84;;;27.85;26.99
32474;BME280;41885;53.190;7.984;2022-09-03T13:41:45;101313.00;;;27.76;27.36
32474;BME280;41885;53.190;7.984;2022-09-03T13:45:53;101312.34;;;27.58;27.04
32474;BME280;41885;53.190;7.984;2022-09-03T13:50:02;101314.13;;;27.38;27.61
32474;BME280;41885;53.190;7.984;2022-09-03T13:54:26;101314.25;;;27.16;27.75
32474;BME280;41885;53.190;7.984;2022-09-03T13:58:33;101308.09;;;27.08;28.21
32474;BME280;41885;53.190;7.984;2022-09-03T14:02:45;101308.91;;;27.04;28.69
32474;BME280;41885;53.190;7.984;2022-09-03T14:06:58;101309.94;;;26.98;28.71
32474;BME280;41885;53.190;7.984;2022-09-03T14:11:11;101322.22;;;26.90;28.94
32474;BME280;41885;53.190;7.984;2022-09-03T14:15:19;101303.19;;;26.78;28.32
32474;BME280;41885;53.190;7.984;2022-09-03T14:19:33;101307.53;;;26.74;28.85
32474;BME280;41885;53.190;7.984;2022-09-03T14:23:44;101300.34;;;26.68;28.55
32474;BME280;41885;53.190;7.984;2022-09-03T14:27:48;101315.13;;;26.67;28.41
32474;BME280;41885;53.190;7.984;2022-09-03T14:32:07;101292.84;;;26.58;29.33
32474;BME280;41885;53.190;7.984;2022-09-03T14:36:20;101296.34;;;26.54;28.90
32474;BME280;41885;53.190;7.984;2022-09-03T14:40:29;101290.13;;;26.36;29.05
32474;BME280;41885;53.190;7.984;2022-09-03T14:49:24;101284.97;;;26.18;29.82
32474;BME280;41885;53.190;7.984;2022-09-03T14:54:05;101293.63;;;26.10;30.20
32474;BME280;41885;53.190;7.984;2022-09-03T14:58:22;101283.38;;;26.00;29.86
32474;BME280;41885;53.190;7.984;2022-09-03T15:07:11;101294.41;;;25.83;30.38
32474;BME280;41885;53.190;7.984;2022-09-03T15:11:21;101293.72;;;25.76;29.46
32474;BME280;41885;53.190;7.984;2022-09-03T15:15:33;101292.59;;;25.72;30.11
32474;BME280;41885;53.190;7.984;2022-09-03T15:20:02;101273.25;;;25.62;30.31
32474;BME280;41885;53.190;7.984;2022-09-03T15:24:23;101280.22;;;25.69;29.68
32474;BME280;41885;53.190;7.984;2022-09-03T15:28:32;101282.06;;;25.64;31.90
32474;BME280;41885;53.190;7.984;2022-09-03T15:33:00;101281.75;;;25.60;30.59
32474;BME280;41885;53.190;7.984;2022-09-03T15:37:09;101284.38;;;25.55;30.24
32474;BME280;41885;53.190;7.984;2022-09-03T15:41:23;101304.38;;;25.56;30.61
32474;BME280;41885;53.190;7.984;2022-09-03T15:45:36;101299.41;;;25.52;30.61
32474;BME280;41885;53.190;7.984;2022-09-03T15:49:52;101302.72;;;25.55;31.00
32474;BME280;41885;53.190;7.984;2022-09-03T15:53:58;101305.22;;;25.56;30.58
32474;BME280;41885;53.190;7.984;2022-09-03T15:58:12;101304.31;;;25.50;30.82
32474;BME280;41885;53.190;7.984;2022-09-03T16:02:20;101298.59;;;25.35;30.86
32474;BME280;41885;53.190;7.984;2022-09-03T16:06:32;101317.66;;;25.30;31.33
32474;BME280;41885;53.190;7.984;2022-09-03T16:10:48;101315.59;;;25.20;31.22
32474;BME280;41885;53.190;7.984;2022-09-03T16:14:57;101309.47;;;25.13;30.94
32474;BME280;41885;53.190;7.984;2022-09-03T16:19:09;101313.47;;;25.11;31.29
32474;BME280;41885;53.190;7.984;2022-09-03T16:23:21;101318.28;;;25.03;30.94
32474;BME280;41885;53.190;7.984;2022-09-03T16:27:31;101325.56;;;24.98;31.10
32474;BME280;41885;53.190;7.984;2022-09-03T16:31:44;101314.13;;;24.84;31.96
32474;BME280;41885;53.190;7.984;2022-09-03T16:35:58;101317.47;;;24.86;31.78
32474;BME280;41885;53.190;7.984;2022-09-03T16:40:14;101320.09;;;24.81;32.33
32474;BME280;41885;53.190;7.984;2022-09-03T16:44:23;101330.69;;;24.77;31.79
32474;BME280;41885;53.190;7.984;2022-09-03T16:48:34;101323.94;;;24.68;32.28
32474;BME280;41885;53.190;7.984;2022-09-03T16:52:44;101322.94;;;24.57;32.04
32474;BME280;41885;53.190;7.984;2022-09-03T16:57:10;101322.22;;;24.50;33.40
32474;BME280;41885;53.190;7.984;2022-09-03T17:01:25;101333.66;;;24.47;32.55
32474;BME280;41885;53.190;7.984;2022-09-03T17:10:19;101326.53;;;24.34;33.87
32474;BME280;41885;53.190;7.984;2022-09-03T17:14:48;101321.13;;;24.23;34.05
32474;BME280;41885;53.190;7.984;2022-09-03T17:19:01;101330.75;;;24.25;34.25
32474;BME280;41885;53.190;7.984;2022-09-03T17:23:15;101335.63;;;24.11;33.38
32474;BME280;41885;53.190;7.984;2022-09-03T17:27:47;101337.78;;;23.98;34.22
32474;BME280;41885;53.190;7.984;2022-09-03T17:31:57;101334.38;;;23.79;33.65
32474;BME280;41885;53.190;7.984;2022-09-03T17:36:10;101338.41;;;23.64;33.92
32474;BME280;41885;53.190;7.984;2022-09-03T17:40:24;101330.66;;;23.38;34.21
32474;BME280;41885;53.190;7.984;2022-09-03T17:44:40;101344.66;;;23.30;34.81
32474;BME280;41885;53.190;7.984;2022-09-03T17:48:50;101351.00;;;23.12;34.37
32474;BME280;41885;53.190;7.984;2022-09-03T17:52:55;101363.31;;;23.03;34.39
32474;BME280;41885;53.190;7.984;2022-09-03T17:57:07;101367.03;;;22.90;34.52
32474;BME280;41885;53.190;7.984;2022-09-03T18:01:17;101376.47;;;22.75;34.72
32474;BME280;41885;53.190;7.984;2022-09-03T18:05:31;101381.00;;;22.63;35.65
32474;BME280;41885;53.190;7.984;2022-09-03T18:09:39;101388.53;;;22.49;35.31
32474;BME280;41885;53.190;7.984;2022-09-03T18:13:46;101399.34;;;22.38;35.55
32474;BME280;41885;53.190;7.984;2022-09-03T18:17:56;101394.50;;;22.21;35.59
32474;BME280;41885;53.190;7.984;2022-09-03T18:22:04;101403.75;;;22.14;36.03
32474;BME280;41885;53.190;7.984;2022-09-03T18:26:28;101396.09;;;22.04;35.98
32474;BME280;41885;53.190;7.984;2022-09-03T18:30:49;101402.63;;;22.03;35.88
32474;BME280;41885;53.190;7.984;2022-09-03T18:35:12;101420.66;;;21.97;36.02
32474;BME280;41885;53.190;7.984;2022-09-03T18:39:35;101413.63;;;21.90;36.63
32474;BME280;41885;53.190;7.984;2022-09-03T18:43:59;101433.72;;;21.89;36.66
32474;BME280;41885;53.190;7.984;2022-09-03T18:48:29;101439.78;;;21.91;36.47
32474;BME280;41885;53.190;7.984;2022-09-03T18:52:56;101436.06;;;21.85;36.88
32474;BME280;41885;53.190;7.984;2022-09-03T18:57:22;101438.63;;;21.80;36.92
32474;BME280;41885;53.190;7.984;2022-09-03T19:01:43;101449.34;;;21.75;37.22
32474;BME280;41885;53.190;7.984;2022-09-03T19:06:14;101441.03;;;21.63;37.59
32474;BME280;41885;53.190;7.984;2022-09-03T19:10:44;101443.66;;;21.51;37.68
32474;BME280;41885;53.190;7.984;2022-09-03T19:15:13;101454.59;;;21.45;37.82
32474;BME280;41885;53.190;7.984;2022-09-03T19:19:44;101466.34;;;21.39;37.89
32474;BME280;41885;53.190;7.984;2022-09-03T19:24:08;101465.97;;;21.28;37.25
32474;BME280;41885;53.190;7.984;2022-09-03T19:28:29;101481.00;;;21.24;37.44
32474;BME280;41885;53.190;7.984;2022-09-03T19:33:06;101466.88;;;21.09;38.54
32474;BME280;41885;53.190;7.984;2022-09-03T19:37:32;101472.34;;;21.02;37.79
32474;BME280;41885;53.190;7.984;2022-09-03T19:41:58;101475.75;;;20.91;37.56
32474;BME280;41885;53.190;7.984;2022-09-03T19:46:29;101484.13;;;20.83;38.06
32474;BME280;41885;53.190;7.984;2022-09-03T19:51:03;101485.84;;;20.71;39.63
32474;BME280;41885;53.190;7.984;2022-09-03T19:55:31;101493.41;;;20.62;37.95
32474;BME280;41885;53.190;7.984;2022-09-03T19:59:52;101495.50;;;20.53;37.90
32474;BME280;41885;53.190;7.984;2022-09-03T20:04:17;101508.25;;;20.46;38.01
32474;BME280;41885;53.190;7.984;2022-09-03T20:08:40;101501.56;;;20.35;38.18
32474;BME280;41885;53.190;7.984;2022-09-03T20:13:07;101501.38;;;20.30;38.24
32474;BME280;41885;53.190;7.984;2022-09-03T20:17:18;101511.59;;;20.21;39.12
32474;BME280;41885;53.190;7.984;2022-09-03T20:21:26;101506.59;;;20.12;38.30
32474;BME280;41885;53.190;7.984;2022-09-03T20:25:43;101510.56;;;20.03;38.80
32474;BME280;41885;53.190;7.984;2022-09-03T20:29:58;101522.25;;;19.96;39.34
32474;BME280;41885;53.190;7.984;2022-09-03T20:34:13;101518.69;;;19.89;38.60
32474;BME280;41885;53.190;7.984;2022-09-03T20:38:30;101527.03;;;19.81;39.17
32474;BME280;41885;53.190;7.984;2022-09-03T20:42:48;101538.09;;;19.73;39.32
32474;BME280;41885;53.190;7.984;2022-09-03T20:47:03;101519.53;;;19.70;39.63
32474;BME280;41885;53.190;7.984;2022-09-03T20:51:13;101522.19;;;19.63;39.10
32474;BME280;41885;53.190;7.984;2022-09-03T20:55:26;101528.84;;;19.61;39.00
32474;BME280;41885;53.190;7.984;2022-09-03T20:59:38;101537.63;;;19.56;39.38
32474;BME280;41885;53.190;7.984;2022-09-03T21:03:51;101534.88;;;19.49;40.34
32474;BME280;41885;53.190;7.984;2022-09-03T21:08:04;101539.03;;;19.45;39.30
32474;BME280;41885;53.190;7.984;2022-09-03T21:12:11;101554.41;;;19.32;43.67
32474;BME280;41885;53.190;7.984;2022-09-03T21:16:31;101553.59;;;19.31;40.11
32474;BME280;41885;53.190;7.984;2022-09-03T21:20:46;101544.38;;;19.19;39.35
32474;BME280;41885;53.190;7.984;2022-09-03T21:24:55;101551.63;;;19.12;39.40
32474;BME280;41885;53.190;7.984;2022-09-03T21:29:02;101558.91;;;19.11;39.56
32474;BME280;41885;53.190;7.984;2022-09-03T21:33:15;101554.09;;;19.07;39.89
32474;BME280;41885;53.190;7.984;2022-09-03T21:37:21;101564.69;;;19.01;39.58
32474;BME280;41885;53.190;7.984;2022-09-03T21:41:25;101574.84;;;18.86;43.70
32474;BME280;41885;53.190;7.984;2022-09-03T21:45:33;101566.91;;;18.85;40.37
32474;BME280;41885;53.190;7.984;2022-09-03T21:49:53;101576.25;;;18.82;41.32
32474;BME280;41885;53.190;7.984;2022-09-03T21:54:03;101571.63;;;18.76;40.40
32474;BME280;41885;53.190;7.984;2022-09-03T21:58:18;101584.25;;;18.69;40.66
32474;BME280;41885;53.190;7.984;2022-09-03T22:02:26;101595.03;;;18.62;40.50